createdAt,value
2018-09-14T00:02:18.358Z,94.15
2018-09-14T00:04:47.406Z,94.42
2018-09-14T00:07:16.604Z,96.09
2018-09-14T00:09:45.715Z,97.62
2018-09-14T00:12:14.778Z,97.54
2018-09-14T00:14:43.797Z,97.05
2018-09-14T00:17:12.808Z,97.83
2018-09-14T00:19:41.767Z,97.69
2018-09-14T00:22:10.711Z,98.77
2018-09-14T00:24:39.796Z,99.09
2018-09-14T00:27:08.812Z,98.56
2018-09-14T00:29:37.897Z,98.66
2018-09-14T00:32:06.904Z,99.62
2018-09-14T00:34:35.932Z,99.56
2018-09-14T00:37:04.942Z,100.00
2018-09-14T00:39:33.994Z,99.96
2018-09-14T00:42:02.976Z,100.00
2018-09-14T00:44:31.937Z,100.00
2018-09-14T00:47:00.997Z,100.00
2018-09-14T00:49:30.061Z,100.00
2018-09-14T00:51:59.015Z,100.00
2018-09-14T00:54:27.968Z,100.00
2018-09-14T00:56:56.970Z,100.00
2018-09-14T00:59:25.981Z,100.00
2018-09-14T01:01:54.992Z,100.00
2018-09-14T01:04:23.923Z,100.00
2018-09-14T01:06:52.962Z,100.00
2018-09-14T01:09:26.606Z,100.00
2018-09-14T01:11:56.970Z,100.00
2018-09-14T01:14:26.628Z,100.00
2018-09-14T01:16:56.235Z,100.00
2018-09-14T01:19:25.528Z,100.00
2018-09-14T01:21:54.496Z,100.00
2018-09-14T01:24:23.479Z,100.00
2018-09-14T01:26:52.492Z,100.00
2018-09-14T01:29:21.455Z,100.00
2018-09-14T01:31:50.492Z,100.00
2018-09-14T01:34:19.491Z,100.00
2018-09-14T01:36:48.424Z,100.00
2018-09-14T01:39:17.428Z,100.00
2018-09-14T01:41:46.384Z,100.00
2018-09-14T01:44:15.347Z,100.00
2018-09-14T01:46:44.304Z,100.00
2018-09-14T01:49:13.242Z,100.00
2018-09-14T01:54:08.209Z,100.00
2018-09-14T01:56:37.290Z,100.00
2018-09-14T01:59:06.253Z,100.00
2018-09-14T02:01:35.223Z,100.00
2018-09-14T02:04:04.324Z,100.00
2018-09-14T02:06:33.431Z,100.00
2018-09-14T02:09:02.418Z,100.00
2018-09-14T02:11:31.448Z,100.00
2018-09-14T02:14:00.471Z,100.00
2018-09-14T02:16:29.425Z,100.00
2018-09-14T02:18:58.432Z,100.00
2018-09-14T02:21:27.419Z,100.00
2018-09-14T02:23:56.416Z,100.00
2018-09-14T02:26:25.376Z,100.00
2018-09-14T02:28:54.376Z,100.00
2018-09-14T02:31:23.384Z,100.00
2018-09-14T02:33:52.363Z,100.00
2018-09-14T02:36:21.408Z,100.00
2018-09-14T02:38:50.335Z,100.00
2018-09-14T02:41:19.306Z,100.00
2018-09-14T02:43:48.336Z,100.00
2018-09-14T02:46:17.411Z,100.00
2018-09-14T02:48:46.408Z,100.00
2018-09-14T02:51:15.387Z,100.00
2018-09-14T02:53:44.456Z,100.00
2018-09-14T02:56:13.397Z,100.00
2018-09-14T02:58:42.348Z,100.00
2018-09-14T03:01:11.309Z,100.00
2018-09-14T03:03:40.268Z,100.00
2018-09-14T03:06:09.226Z,100.00
2018-09-14T03:08:38.344Z,100.00
2018-09-14T03:11:07.320Z,100.00
2018-09-14T03:13:36.273Z,100.00
2018-09-14T03:16:05.279Z,100.00
2018-09-14T03:18:34.211Z,100.00
2018-09-14T03:21:03.171Z,100.00
2018-09-14T03:23:32.119Z,100.00
2018-09-14T03:26:01.189Z,100.00
2018-09-14T03:28:30.290Z,100.00
2018-09-14T03:30:59.315Z,100.00
2018-09-14T03:33:28.284Z,100.00
2018-09-14T03:35:57.223Z,100.00
2018-09-14T03:38:26.193Z,100.00
2018-09-14T03:40:55.144Z,100.00
2018-09-14T03:43:24.209Z,100.00
2018-09-14T03:45:53.204Z,100.00
2018-09-14T03:48:22.183Z,100.00
2018-09-14T03:50:51.192Z,100.00
2018-09-14T03:53:20.208Z,100.00
2018-09-14T03:55:49.147Z,100.00
2018-09-14T03:58:18.225Z,100.00
2018-09-14T04:00:47.180Z,100.00
2018-09-14T04:03:16.127Z,100.00
2018-09-14T04:05:45.095Z,100.00
2018-09-14T04:08:14.053Z,100.00
2018-09-14T04:10:43.064Z,100.00
2018-09-14T04:13:12.120Z,100.00
2018-09-14T04:15:41.224Z,100.00
2018-09-14T04:18:10.229Z,100.00
2018-09-14T04:20:39.179Z,100.00
2018-09-14T04:23:08.136Z,100.00
2018-09-14T04:25:37.074Z,100.00
2018-09-14T04:28:06.168Z,100.00
2018-09-14T04:30:35.240Z,100.00
2018-09-14T04:33:04.299Z,100.00
2018-09-14T04:35:33.275Z,100.00
2018-09-14T04:38:02.349Z,100.00
2018-09-14T04:40:31.348Z,100.00
2018-09-14T04:43:00.400Z,100.00
2018-09-14T04:45:29.368Z,96.64
2018-09-14T04:47:58.309Z,95.21
2018-09-14T04:50:27.260Z,94.03
2018-09-14T04:52:56.269Z,91.53
2018-09-14T04:55:25.358Z,90.53
2018-09-14T04:57:54.311Z,88.92
2018-09-14T05:00:23.309Z,88.04
2018-09-14T05:02:52.527Z,88.13
2018-09-14T05:05:21.446Z,89.52
2018-09-14T05:07:50.449Z,90.15
2018-09-14T05:10:19.412Z,91.39
2018-09-14T05:12:48.413Z,90.62
2018-09-14T05:15:17.410Z,91.60
2018-09-14T05:17:46.380Z,92.01
2018-09-14T05:20:15.358Z,92.74
2018-09-14T05:22:44.291Z,92.59
2018-09-14T05:25:13.319Z,93.28
2018-09-14T05:27:42.317Z,93.63
2018-09-14T05:30:11.345Z,93.87
2018-09-14T05:32:40.317Z,94.37
2018-09-14T05:35:09.328Z,93.00
2018-09-14T05:37:38.325Z,91.94
2018-09-14T05:40:07.268Z,89.56
2018-09-14T05:42:36.220Z,88.91
2018-09-14T05:45:05.163Z,89.37
2018-09-14T05:47:34.160Z,89.64
2018-09-14T05:50:03.112Z,89.64
2018-09-14T05:52:32.065Z,90.54
2018-09-14T05:55:01.006Z,90.80
2018-09-14T05:57:30.087Z,90.98
2018-09-14T05:59:59.079Z,91.82
2018-09-14T06:02:28.053Z,90.97
2018-09-14T06:04:57.093Z,89.46
2018-09-14T06:07:26.103Z,88.98
2018-09-14T06:09:55.125Z,86.18
2018-09-14T06:12:24.086Z,86.32
2018-09-14T06:14:53.036Z,85.57
2018-09-14T06:17:22.041Z,83.70
2018-09-14T06:19:51.081Z,81.73
2018-09-14T06:22:20.045Z,79.84
2018-09-14T06:24:49.034Z,80.71
2018-09-14T06:27:18.102Z,79.85
2018-09-14T06:29:47.063Z,76.38
2018-09-14T06:32:16.038Z,77.57
2018-09-14T06:34:45.023Z,80.21
2018-09-14T06:37:14.117Z,78.06
2018-09-14T06:39:43.158Z,75.29
2018-09-14T06:42:12.252Z,74.84
2018-09-14T06:44:41.268Z,74.08
2018-09-14T06:47:10.288Z,72.35
2018-09-14T06:49:39.394Z,70.47
2018-09-14T06:52:08.726Z,69.84
2018-09-14T06:54:37.860Z,71.43
2018-09-14T06:57:06.853Z,72.28
2018-09-14T06:59:35.878Z,70.07
2018-09-14T07:02:04.864Z,65.36
2018-09-14T07:04:34.000Z,66.67
2018-09-14T07:07:02.990Z,64.87
2018-09-14T07:09:31.988Z,66.10
2018-09-14T07:12:01.047Z,65.09
2018-09-14T07:14:30.025Z,64.01
2018-09-14T07:16:59.012Z,63.67
2018-09-14T07:19:28.008Z,64.16
2018-09-14T07:21:57.147Z,63.59
2018-09-14T07:24:26.261Z,65.52
2018-09-14T07:26:55.270Z,64.47
2018-09-14T07:29:24.267Z,63.98
2018-09-14T07:31:53.371Z,63.23
2018-09-14T07:34:22.315Z,64.86
2018-09-14T07:36:51.367Z,64.80
2018-09-14T07:39:20.458Z,64.63
2018-09-14T07:41:49.427Z,65.82
2018-09-14T07:44:18.485Z,64.22
2018-09-14T07:46:47.544Z,63.49
2018-09-14T07:49:16.667Z,63.68
2018-09-14T07:51:45.727Z,63.44
2018-09-14T07:54:14.703Z,62.01
2018-09-14T07:56:43.829Z,61.44
2018-09-14T07:59:12.880Z,61.19
2018-09-14T08:01:41.871Z,60.62
2018-09-14T08:04:10.791Z,60.26
2018-09-14T08:06:39.779Z,60.90
2018-09-14T08:09:11.618Z,60.04
2018-09-14T08:11:40.829Z,60.38
2018-09-14T08:14:10.174Z,58.98
2018-09-14T08:16:39.252Z,57.98
2018-09-14T08:19:08.469Z,58.06
2018-09-14T08:21:37.653Z,57.99
2018-09-14T08:24:06.574Z,57.47
2018-09-14T08:26:35.548Z,57.52
2018-09-14T08:29:04.609Z,56.58
2018-09-14T08:31:33.605Z,55.90
2018-09-14T08:34:02.672Z,56.45
2018-09-14T08:36:31.668Z,55.68
2018-09-14T08:39:00.693Z,55.57
2018-09-14T08:41:29.644Z,56.37
2018-09-14T08:43:58.628Z,53.45
2018-09-14T08:46:27.606Z,53.16
2018-09-14T08:48:56.637Z,53.40
2018-09-14T08:51:25.659Z,51.51
2018-09-14T08:53:54.711Z,53.65
2018-09-14T08:56:23.646Z,52.61
2018-09-14T08:58:52.667Z,52.01
2018-09-14T09:01:21.601Z,50.96
2018-09-14T09:03:50.612Z,50.80
2018-09-14T09:06:19.556Z,50.36
2018-09-14T09:08:48.536Z,51.15
2018-09-14T09:11:17.549Z,52.26
2018-09-14T09:13:46.619Z,52.50
2018-09-14T09:16:15.586Z,50.34
2018-09-14T09:18:44.602Z,51.58
2018-09-14T09:21:13.694Z,50.89
2018-09-14T09:23:42.657Z,50.45
2018-09-14T09:26:11.846Z,49.15
2018-09-14T09:28:40.873Z,50.85
2018-09-14T09:31:10.054Z,51.72
2018-09-14T09:33:39.096Z,51.02
2018-09-14T09:36:09.047Z,50.94
2018-09-14T09:38:38.075Z,49.76
2018-09-14T09:41:07.743Z,49.58
2018-09-14T09:43:36.941Z,48.63
2018-09-14T09:46:05.987Z,47.71
2018-09-14T09:48:35.050Z,45.85
2018-09-14T09:51:04.100Z,44.35
2018-09-14T09:53:33.041Z,45.60
2018-09-14T09:56:02.020Z,44.64
2018-09-14T09:58:31.234Z,45.61
2018-09-14T10:01:05.292Z,44.97
2018-09-14T10:03:39.455Z,47.66
2018-09-14T10:06:13.318Z,45.96
2018-09-14T10:08:42.556Z,44.53
2018-09-14T10:11:11.510Z,47.13
2018-09-14T10:13:40.458Z,45.78
2018-09-14T10:16:09.487Z,43.29
2018-09-14T10:18:38.442Z,42.70
2018-09-14T10:21:07.610Z,40.68
2018-09-14T10:23:36.628Z,37.88
2018-09-14T10:26:05.881Z,41.17
2018-09-14T10:28:34.867Z,44.25
2018-09-14T10:31:03.933Z,45.31
2018-09-14T10:33:32.986Z,46.67
2018-09-14T10:36:01.943Z,48.16
2018-09-14T10:38:30.897Z,47.58
2018-09-14T10:40:59.843Z,47.80
2018-09-14T10:43:28.919Z,44.96
2018-09-14T10:45:58.002Z,44.55
2018-09-14T10:48:26.997Z,42.96
2018-09-14T10:50:55.984Z,40.80
2018-09-14T10:53:24.947Z,40.84
2018-09-14T10:55:53.943Z,38.52
2018-09-14T10:58:22.899Z,39.49
2018-09-14T11:00:51.968Z,38.26
2018-09-14T11:03:20.931Z,36.36
2018-09-14T11:05:49.911Z,32.41
2018-09-14T11:08:18.937Z,33.63
2018-09-14T11:10:47.947Z,34.43
2018-09-14T11:13:16.912Z,36.73
2018-09-14T11:15:45.935Z,37.46
2018-09-14T11:18:14.989Z,39.64
2018-09-14T11:20:45.438Z,38.38
2018-09-14T11:23:14.481Z,38.49
2018-09-14T11:25:43.499Z,40.07
2018-09-14T11:28:12.522Z,36.89
2018-09-14T11:30:41.460Z,38.31
2018-09-14T11:33:10.498Z,38.27
2018-09-14T11:35:39.512Z,37.22
2018-09-14T11:38:08.627Z,35.28
2018-09-14T11:40:37.694Z,32.35
2018-09-14T11:43:06.694Z,29.14
2018-09-14T11:45:35.712Z,29.46
2018-09-14T11:48:04.708Z,28.75
2018-09-14T11:50:33.737Z,31.04
2018-09-14T11:53:02.740Z,32.39
2018-09-14T11:55:31.778Z,35.29
2018-09-14T11:58:00.891Z,34.35
2018-09-14T12:00:29.967Z,31.22
2018-09-14T12:02:58.975Z,29.27
2018-09-14T12:05:27.924Z,27.97
2018-09-14T12:07:56.936Z,27.19
2018-09-14T12:10:25.907Z,28.82
2018-09-14T12:12:54.872Z,30.70
2018-09-14T12:15:23.832Z,31.53
2018-09-14T12:17:52.800Z,32.94
2018-09-14T12:20:21.783Z,32.71
2018-09-14T12:22:50.879Z,32.49
2018-09-14T12:25:19.834Z,32.45
2018-09-14T12:27:48.787Z,34.32
2018-09-14T12:30:17.784Z,35.19
2018-09-14T12:32:46.841Z,36.30
2018-09-14T12:35:15.889Z,37.83
2018-09-14T12:37:44.838Z,37.94
2018-09-14T12:40:13.817Z,38.66
2018-09-14T12:42:42.755Z,38.56
2018-09-14T12:45:11.815Z,37.56
2018-09-14T12:47:40.756Z,37.14
2018-09-14T12:50:09.768Z,36.09
2018-09-14T12:52:38.754Z,37.31
2018-09-14T12:55:07.754Z,38.97
2018-09-14T12:57:36.696Z,39.13
2018-09-14T13:00:05.761Z,38.25
2018-09-14T13:02:34.724Z,38.91
2018-09-14T13:05:03.646Z,38.05
2018-09-14T13:07:32.697Z,38.48
2018-09-14T13:10:02.793Z,39.10
2018-09-14T13:12:31.737Z,39.92
2018-09-14T13:15:00.778Z,41.67
2018-09-14T13:17:29.668Z,39.83
2018-09-14T13:19:58.636Z,39.11
2018-09-14T13:22:27.595Z,41.12
2018-09-14T13:24:56.551Z,40.14
2018-09-14T13:27:25.560Z,39.17
2018-09-14T13:29:54.611Z,40.10
2018-09-14T13:32:23.606Z,39.72
2018-09-14T13:34:52.613Z,39.98
2018-09-14T13:37:21.636Z,40.65
2018-09-14T13:39:50.595Z,38.60
2018-09-14T13:42:19.630Z,37.63
2018-09-14T13:44:48.618Z,36.42
2018-09-14T13:47:17.619Z,36.06
2018-09-14T13:49:46.640Z,38.24
2018-09-14T13:52:15.673Z,38.15
2018-09-14T13:54:44.685Z,37.64
2018-09-14T13:57:13.691Z,37.36
2018-09-14T13:59:42.749Z,37.44
2018-09-14T14:02:11.788Z,37.35
2018-09-14T14:04:40.891Z,38.21
2018-09-14T14:07:09.845Z,39.52
2018-09-14T14:09:38.868Z,38.44
2018-09-14T14:12:07.861Z,40.06
2018-09-14T14:14:36.884Z,39.33
2018-09-14T14:17:06.032Z,40.63
2018-09-14T14:19:34.965Z,40.92
2018-09-14T14:22:03.928Z,40.32
2018-09-14T14:24:32.905Z,38.87
2018-09-14T14:27:02.075Z,39.03
2018-09-14T14:29:31.031Z,39.81
2018-09-14T14:32:00.013Z,40.81
2018-09-14T14:34:29.062Z,40.73
2018-09-14T14:36:58.079Z,40.96
2018-09-14T14:39:27.033Z,39.58
2018-09-14T14:41:56.023Z,40.06
2018-09-14T14:44:25.075Z,40.41
2018-09-14T14:46:54.019Z,40.46
2018-09-14T14:49:23.138Z,42.06
2018-09-14T14:51:52.243Z,41.89
2018-09-14T14:54:21.252Z,41.06
2018-09-14T14:56:50.259Z,42.01
2018-09-14T14:59:19.435Z,41.05
2018-09-14T15:01:48.507Z,42.29
2018-09-14T15:04:17.599Z,42.14
2018-09-14T15:06:46.699Z,43.40
2018-09-14T15:09:15.668Z,42.57
2018-09-14T15:11:44.697Z,42.74
2018-09-14T15:14:13.624Z,42.97
2018-09-14T15:16:42.590Z,44.50
2018-09-14T15:19:11.600Z,44.54
2018-09-14T15:21:40.616Z,44.93
2018-09-14T15:24:09.584Z,44.47
2018-09-14T15:26:38.560Z,44.84
2018-09-14T15:29:07.668Z,45.25
2018-09-14T15:31:36.603Z,45.45
2018-09-14T15:34:05.588Z,45.00
2018-09-14T15:36:34.556Z,46.29
2018-09-14T15:39:03.690Z,48.34
2018-09-14T15:41:32.687Z,47.61
2018-09-14T15:44:01.634Z,48.13
2018-09-14T15:46:30.584Z,48.52
2018-09-14T15:48:59.594Z,50.41
2018-09-14T15:51:28.533Z,51.77
2018-09-14T15:53:57.488Z,49.60
2018-09-14T15:56:26.513Z,50.29
2018-09-14T15:58:55.496Z,49.53
2018-09-14T16:01:24.488Z,49.61
2018-09-14T16:03:53.480Z,49.41
2018-09-14T16:06:22.636Z,51.25
2018-09-14T16:08:51.678Z,50.96
2018-09-14T16:11:20.733Z,51.72
2018-09-14T16:13:49.900Z,53.22
2018-09-14T16:16:18.909Z,54.04
2018-09-14T16:18:47.879Z,55.99
2018-09-14T16:21:16.932Z,57.65
2018-09-14T16:23:46.069Z,60.41
2018-09-14T16:26:15.053Z,61.19
2018-09-14T16:28:44.010Z,63.02
2018-09-14T16:31:13.081Z,65.02
2018-09-14T16:33:42.099Z,65.07
2018-09-14T16:36:11.078Z,65.30
2018-09-14T16:38:40.077Z,65.55
2018-09-14T16:41:09.049Z,65.85
2018-09-14T16:43:38.040Z,67.52
2018-09-14T16:46:07.027Z,67.35
2018-09-14T16:48:36.100Z,68.87
2018-09-14T16:51:05.052Z,70.11
2018-09-14T16:53:34.019Z,69.78
2018-09-14T16:56:02.980Z,71.04
2018-09-14T16:58:31.928Z,72.06
2018-09-14T17:01:00.892Z,72.37
2018-09-14T17:03:30.029Z,72.46
2018-09-14T17:05:58.996Z,72.84
2018-09-14T17:08:27.962Z,72.05
2018-09-14T17:10:56.989Z,72.29
2018-09-14T17:13:26.005Z,72.74
2018-09-14T17:15:54.975Z,73.52
2018-09-14T17:18:23.947Z,73.34
2018-09-14T17:20:52.906Z,73.71
2018-09-14T17:23:21.995Z,74.61
2018-09-14T17:25:50.964Z,75.64
2018-09-14T17:28:19.950Z,75.40
2018-09-14T17:30:49.250Z,75.50
2018-09-14T17:33:18.260Z,76.43
2018-09-14T17:35:47.239Z,76.65
2018-09-14T17:38:16.315Z,76.99
2018-09-14T17:40:45.300Z,78.64
2018-09-14T17:43:14.301Z,78.27
2018-09-14T17:45:43.373Z,78.68
2018-09-14T17:48:12.328Z,79.00
2018-09-14T17:50:41.282Z,78.11
2018-09-14T17:53:10.288Z,78.66
2018-09-14T17:55:39.267Z,78.80
2018-09-14T17:58:08.271Z,79.16
2018-09-14T18:00:37.247Z,79.21
2018-09-14T18:03:06.235Z,79.02
2018-09-14T18:05:35.254Z,78.72
2018-09-14T18:08:04.274Z,78.17
2018-09-14T18:10:33.233Z,78.68
2018-09-14T18:13:02.206Z,79.61
2018-09-14T18:15:31.479Z,80.18
2018-09-14T18:18:00.454Z,81.14
2018-09-14T18:20:29.428Z,80.95
2018-09-14T18:22:58.372Z,81.44
2018-09-14T18:25:27.385Z,81.62
2018-09-14T18:27:56.407Z,81.40
2018-09-14T18:30:25.419Z,82.01
2018-09-14T18:32:54.397Z,82.71
2018-09-14T18:35:23.372Z,82.71
2018-09-14T18:37:52.362Z,82.49
2018-09-14T18:40:21.334Z,82.60
2018-09-14T18:42:50.392Z,83.19
2018-09-14T18:45:19.423Z,82.54
2018-09-14T18:47:48.432Z,83.16
2018-09-14T18:50:17.392Z,83.37
2018-09-14T18:52:46.454Z,83.08
2018-09-14T18:55:15.446Z,82.58
2018-09-14T18:57:44.410Z,83.77
2018-09-14T19:00:13.432Z,83.17
2018-09-14T19:02:42.425Z,83.41
2018-09-14T19:05:11.426Z,83.72
2018-09-14T19:07:40.420Z,83.66
2018-09-14T19:10:09.526Z,82.99
2018-09-14T19:12:38.493Z,82.51
2018-09-14T19:15:08.111Z,82.26
2018-09-14T19:17:37.060Z,82.68
2018-09-14T19:20:06.042Z,83.29
2018-09-14T19:22:34.998Z,82.95
2018-09-14T19:25:03.976Z,83.29
2018-09-14T19:27:32.940Z,83.27
2018-09-14T19:30:01.914Z,83.06
2018-09-14T19:32:30.926Z,84.17
2018-09-14T19:34:59.928Z,84.88
2018-09-14T19:37:29.094Z,84.24
2018-09-14T19:39:58.083Z,83.86
2018-09-14T19:42:27.024Z,83.77
2018-09-14T19:44:55.989Z,84.49
2018-09-14T19:47:24.924Z,84.04
2018-09-14T19:49:53.915Z,84.32
2018-09-14T19:52:22.863Z,84.96
2018-09-14T19:54:51.808Z,85.32
2018-09-14T19:57:20.756Z,86.37
2018-09-14T19:59:49.780Z,86.53
2018-09-14T20:02:18.760Z,86.42
2018-09-14T20:04:47.708Z,86.13
2018-09-14T20:07:16.651Z,86.90
2018-09-14T20:09:45.609Z,88.15
2018-09-14T20:12:14.562Z,87.90
2018-09-14T20:14:43.517Z,87.22
2018-09-14T20:17:12.554Z,87.74
2018-09-14T20:19:41.472Z,87.13
2018-09-14T20:22:10.534Z,87.61
2018-09-14T20:24:39.511Z,87.93
2018-09-14T20:27:08.445Z,88.84
2018-09-14T20:29:37.428Z,89.73
2018-09-14T20:32:06.388Z,89.03
2018-09-14T20:34:35.476Z,90.00
2018-09-14T20:37:04.443Z,90.38
2018-09-14T20:39:33.498Z,90.19
2018-09-14T20:42:02.454Z,90.66
2018-09-14T20:44:31.373Z,90.44
2018-09-14T20:47:00.346Z,90.25
2018-09-14T20:49:29.313Z,90.15
2018-09-14T20:51:58.246Z,90.18
2018-09-14T20:54:27.175Z,90.01
2018-09-14T20:56:56.135Z,90.35
2018-09-14T20:59:25.075Z,89.60
2018-09-14T21:01:54.083Z,89.11
2018-09-14T21:04:23.090Z,89.01
2018-09-14T21:06:51.987Z,89.78
2018-09-14T21:09:20.943Z,89.53
2018-09-14T21:11:49.858Z,88.69
2018-09-14T21:14:18.812Z,89.26
2018-09-14T21:16:47.762Z,88.87
2018-09-14T21:19:16.705Z,90.15
2018-09-14T21:21:45.647Z,89.95
2018-09-14T21:24:14.895Z,89.60
2018-09-14T21:26:43.831Z,89.84
2018-09-14T21:29:12.793Z,89.92
2018-09-14T21:31:42.065Z,90.44
2018-09-14T21:34:11.045Z,91.32
2018-09-14T21:36:40.014Z,93.21
2018-09-14T21:39:11.073Z,93.37
2018-09-14T21:41:40.302Z,93.88
2018-09-14T21:44:09.757Z,94.37
2018-09-14T21:46:38.811Z,94.57
2018-09-14T21:49:07.961Z,94.15
2018-09-14T21:51:36.908Z,94.68
2018-09-14T21:54:05.955Z,93.75
2018-09-14T21:56:34.871Z,93.58
2018-09-14T21:59:03.824Z,93.75
2018-09-14T22:01:32.798Z,94.43
2018-09-14T22:04:02.083Z,93.31
2018-09-14T22:06:31.023Z,93.19
2018-09-14T22:08:59.977Z,92.06
2018-09-14T22:11:28.936Z,92.34
2018-09-14T22:13:57.952Z,92.91
2018-09-14T22:16:26.906Z,91.59
2018-09-14T22:18:55.842Z,91.49
2018-09-14T22:21:24.834Z,90.69
2018-09-14T22:23:53.780Z,91.06
2018-09-14T22:26:22.751Z,90.53
2018-09-14T22:28:51.684Z,89.90
2018-09-14T22:31:20.644Z,90.46
2018-09-14T22:33:49.612Z,90.40
2018-09-14T22:36:18.623Z,89.84
2018-09-14T22:38:47.577Z,89.43
2018-09-14T22:41:16.572Z,89.81
2018-09-14T22:43:45.806Z,89.63
2018-09-14T22:46:14.941Z,90.26
2018-09-14T22:48:43.896Z,89.64
2018-09-14T22:51:12.835Z,88.89
2018-09-14T22:53:41.856Z,87.24
2018-09-14T22:56:10.911Z,87.69
2018-09-14T22:58:39.934Z,87.78
2018-09-14T23:01:14.064Z,88.52
2018-09-14T23:03:43.057Z,89.37
2018-09-14T23:06:12.007Z,90.96
2018-09-14T23:08:41.014Z,91.48
2018-09-14T23:11:10.371Z,93.49
2018-09-14T23:13:39.540Z,94.55
2018-09-14T23:16:08.487Z,95.24
2018-09-14T23:18:37.437Z,96.68
2018-09-14T23:21:06.380Z,96.82
2018-09-14T23:23:35.341Z,98.54
2018-09-14T23:26:13.006Z,98.66
2018-09-14T23:28:42.019Z,99.01
2018-09-14T23:31:10.960Z,100.00
2018-09-14T23:33:39.955Z,100.00
2018-09-14T23:36:08.906Z,100.00
2018-09-14T23:38:37.860Z,100.00
2018-09-14T23:41:06.862Z,100.00
2018-09-14T23:43:35.798Z,100.00
2018-09-14T23:46:04.777Z,100.00
2018-09-14T23:48:33.799Z,100.00
2018-09-14T23:51:02.778Z,100.00
2018-09-14T23:53:31.720Z,100.00
2018-09-14T23:56:00.695Z,100.00
2018-09-14T23:58:29.629Z,99.99
